Crystal River, FL

2:26 PM EDT on June 22, 2017 (GMT -0400)
Greenwood Acres | | Change Station

Elev 7 ft 28.92 °N, 82.60 °W | Updated 12 seconds ago

Scattered Clouds
Scattered Clouds
91.2 °F
Feels Like 110 °F
N
2.0
Wind Variable Wind from SW
Gusts 4.0 mph

Today
High -- | Low -- °F
--% Chance of Precip.
Yesterday
High -- | Low -- °F
Precip. -- in
Pressure 30.04 in
Visibility 10.0 miles
Clouds Scattered Clouds 4800 ft
Scattered Clouds 5500 ft
Heat Index 110 °F
Dew Point 80 °F
Humidity 71%
Rainfall 0.00 in
Snow Depth Not available.
6:32 AM 8:32 PM
Waning Crescent, 3% visible
METAR KCGC 221815Z AUTO 17003KT 10SM SCT048 SCT055 33/22 A3004 RMK AO2
Pressure 30.04 in
Visibility 10.0 miles
Clouds Scattered Clouds 4800 ft
Scattered Clouds 5500 ft
Heat Index 110 °F
Dew Point 80 °F
Humidity 71%
Rainfall 0.00 in
Snow Depth Not available.
6:32 AM 8:32 PM
Waning Crescent, 3% visible
METAR KCGC 221815Z AUTO 17003KT 10SM SCT048 SCT055 33/22 A3004 RMK AO2

Get Severe Weather Alerts

Thanks for signing up!

Be on the lookout for a verification email in your inbox.

You'll start receiving the daily forecast at 6 AM.

×

10-Day Weather Forecast

Almanac

Astronomy

Jun. 22, 2017 Rise Set
Actual Time
Civil Twilight
Nautical Twilight
Astronomical Twilight
Moon
Length of Visible Light
Length of Day
Tomorrow will be .
, % of the Moon is Illuminated

Today's Extremes

State Highs State Lows

Community

WunderPhotos

Category 6

Welcome to Category 6. This is the collective home for Weather Underground's featured writeups by Dr. Jeff Masters (right), Bob Henson (left), Chris Burt, and other regular contributors.

Nearby

Air Quality

  Air Quality AQ Index Pollutant
Not available.

Snow Depth

Station Depth Elevation

Earthquake Activity

City Distance Mag. Time & Date
Minimum magnitude displayed is 2.5.

Coastal Water Temperatures

Place Temperature

Stations

Nearby Weather Stations

Station Location Temp. Windchill Dew Point Humidity Wind Precip. Elev Updated Type
                   

Watches & Warnings

There are currently no watches in effect.